sensor_id;sensor_type;location;lat;lon;timestamp;temperature;humidity
53053;DHT22;38934;52.690;6.184;2023-05-28T00:00:10;11.60;99.90
53053;DHT22;38934;52.690;6.184;2023-05-28T00:02:37;11.60;99.90
53053;DHT22;38934;52.690;6.184;2023-05-28T00:05:03;11.60;99.90
53053;DHT22;38934;52.690;6.184;2023-05-28T00:07:29;11.60;99.90
53053;DHT22;38934;52.690;6.184;2023-05-28T00:09:56;11.50;99.90
53053;DHT22;38934;52.690;6.184;2023-05-28T00:12:22;11.50;99.90
53053;DHT22;38934;52.690;6.184;2023-05-28T00:14:48;11.40;99.90
53053;DHT22;38934;52.690;6.184;2023-05-28T00:17:15;11.40;99.90
53053;DHT22;38934;52.690;6.184;2023-05-28T00:19:44;11.30;99.90
53053;DHT22;38934;52.690;6.184;2023-05-28T00:22:10;11.40;99.90
53053;DHT22;38934;52.690;6.184;2023-05-28T00:24:36;11.30;99.90
53053;DHT22;38934;52.690;6.184;2023-05-28T00:27:02;11.20;99.90
53053;DHT22;38934;52.690;6.184;2023-05-28T00:29:31;11.20;99.90
53053;DHT22;38934;52.690;6.184;2023-05-28T00:31:57;11.20;99.90
53053;DHT22;38934;52.690;6.184;2023-05-28T00:34:23;11.20;99.90
53053;DHT22;38934;52.690;6.184;2023-05-28T00:36:49;11.20;99.90
53053;DHT22;38934;52.690;6.184;2023-05-28T00:39:16;11.30;99.90
53053;DHT22;38934;52.690;6.184;2023-05-28T00:41:42;11.20;99.90
53053;DHT22;38934;52.690;6.184;2023-05-28T00:44:08;11.30;99.90
53053;DHT22;38934;52.690;6.184;2023-05-28T00:46:41;11.30;99.90
53053;DHT22;38934;52.690;6.184;2023-05-28T00:49:09;11.20;99.90
53053;DHT22;38934;52.690;6.184;2023-05-28T00:51:36;11.20;99.90
53053;DHT22;38934;52.690;6.184;2023-05-28T00:54:03;11.20;99.90
53053;DHT22;38934;52.690;6.184;2023-05-28T00:56:29;11.20;99.90
53053;DHT22;38934;52.690;6.184;2023-05-28T00:59:00;11.20;99.90
53053;DHT22;38934;52.690;6.184;2023-05-28T01:01:27;11.10;99.90
53053;DHT22;38934;52.690;6.184;2023-05-28T01:03:54;11.10;99.90
53053;DHT22;38934;52.690;6.184;2023-05-28T01:06:21;11.00;99.90
53053;DHT22;38934;52.690;6.184;2023-05-28T01:08:48;11.00;99.90
53053;DHT22;38934;52.690;6.184;2023-05-28T01:11:16;11.00;99.90
53053;DHT22;38934;52.690;6.184;2023-05-28T01:13:44;10.80;99.90
53053;DHT22;38934;52.690;6.184;2023-05-28T01:16:11;10.80;99.90
53053;DHT22;38934;52.690;6.184;2023-05-28T01:18:39;10.80;99.90
53053;DHT22;38934;52.690;6.184;2023-05-28T01:21:05;10.80;99.90
53053;DHT22;38934;52.690;6.184;2023-05-28T01:23:43;10.70;99.90
53053;DHT22;38934;52.690;6.184;2023-05-28T01:26:11;10.70;99.90
53053;DHT22;38934;52.690;6.184;2023-05-28T01:28:37;10.70;99.90
53053;DHT22;38934;52.690;6.184;2023-05-28T01:31:13;10.70;99.90
53053;DHT22;38934;52.690;6.184;2023-05-28T01:33:40;10.80;99.90
53053;DHT22;38934;52.690;6.184;2023-05-28T01:36:33;10.70;99.90
53053;DHT22;38934;52.690;6.184;2023-05-28T01:39:01;10.80;99.90
53053;DHT22;38934;52.690;6.184;2023-05-28T01:41:28;10.70;99.90
53053;DHT22;38934;52.690;6.184;2023-05-28T01:43:55;10.70;99.90
53053;DHT22;38934;52.690;6.184;2023-05-28T01:46:22;10.70;99.90
53053;DHT22;38934;52.690;6.184;2023-05-28T01:48:48;10.70;99.90
53053;DHT22;38934;52.690;6.184;2023-05-28T01:51:23;10.70;99.90
53053;DHT22;38934;52.690;6.184;2023-05-28T01:53:49;10.70;99.90
53053;DHT22;38934;52.690;6.184;2023-05-28T01:56:15;10.70;99.90
53053;DHT22;38934;52.690;6.184;2023-05-28T01:58:42;11.50;99.90
53053;DHT22;38934;52.690;6.184;2023-05-28T02:01:29;10.80;99.90
53053;DHT22;38934;52.690;6.184;2023-05-28T02:03:58;10.80;99.90
53053;DHT22;38934;52.690;6.184;2023-05-28T02:06:24;10.70;99.90
53053;DHT22;38934;52.690;6.184;2023-05-28T02:08:52;10.70;99.90
53053;DHT22;38934;52.690;6.184;2023-05-28T02:11:18;10.80;99.90
53053;DHT22;38934;52.690;6.184;2023-05-28T02:13:44;10.60;99.90
53053;DHT22;38934;52.690;6.184;2023-05-28T02:16:10;10.90;99.90
53053;DHT22;38934;52.690;6.184;2023-05-28T02:18:38;10.60;99.90
53053;DHT22;38934;52.690;6.184;2023-05-28T02:21:05;10.70;99.90
53053;DHT22;38934;52.690;6.184;2023-05-28T02:23:31;10.60;99.90
53053;DHT22;38934;52.690;6.184;2023-05-28T02:25:57;10.70;99.90
53053;DHT22;38934;52.690;6.184;2023-05-28T02:28:22;10.70;99.90
53053;DHT22;38934;52.690;6.184;2023-05-28T02:30:48;11.10;99.90
53053;DHT22;38934;52.690;6.184;2023-05-28T02:33:14;10.60;99.90
53053;DHT22;38934;52.690;6.184;2023-05-28T02:35:40;10.60;99.90
53053;DHT22;38934;52.690;6.184;2023-05-28T02:38:06;10.60;99.90
53053;DHT22;38934;52.690;6.184;2023-05-28T02:40:36;10.60;99.90
53053;DHT22;38934;52.690;6.184;2023-05-28T02:43:01;10.60;99.90
53053;DHT22;38934;52.690;6.184;2023-05-28T02:45:27;10.60;99.90
53053;DHT22;38934;52.690;6.184;2023-05-28T02:47:53;10.50;99.90
53053;DHT22;38934;52.690;6.184;2023-05-28T02:50:19;10.60;99.90
53053;DHT22;38934;52.690;6.184;2023-05-28T02:52:44;10.60;99.90
53053;DHT22;38934;52.690;6.184;2023-05-28T02:55:11;10.60;99.90
53053;DHT22;38934;52.690;6.184;2023-05-28T02:57:36;10.60;99.90
53053;DHT22;38934;52.690;6.184;2023-05-28T03:00:03;10.60;99.90
53053;DHT22;38934;52.690;6.184;2023-05-28T03:02:30;10.60;99.90
53053;DHT22;38934;52.690;6.184;2023-05-28T03:04:56;10.60;99.90
53053;DHT22;38934;52.690;6.184;2023-05-28T03:07:23;10.50;99.90
53053;DHT22;38934;52.690;6.184;2023-05-28T03:09:49;10.50;99.90
53053;DHT22;38934;52.690;6.184;2023-05-28T03:12:15;11.10;99.90
53053;DHT22;38934;52.690;6.184;2023-05-28T03:14:41;10.60;99.90
53053;DHT22;38934;52.690;6.184;2023-05-28T03:17:06;10.60;99.90
53053;DHT22;38934;52.690;6.184;2023-05-28T03:19:32;10.50;99.90
53053;DHT22;38934;52.690;6.184;2023-05-28T03:21:58;10.50;99.90
53053;DHT22;38934;52.690;6.184;2023-05-28T03:24:23;10.50;99.90
53053;DHT22;38934;52.690;6.184;2023-05-28T03:26:49;10.50;99.90
53053;DHT22;38934;52.690;6.184;2023-05-28T03:29:15;10.50;99.90
53053;DHT22;38934;52.690;6.184;2023-05-28T03:31:46;10.50;99.90
53053;DHT22;38934;52.690;6.184;2023-05-28T03:34:12;10.50;99.90
53053;DHT22;38934;52.690;6.184;2023-05-28T03:36:38;10.50;99.90
53053;DHT22;38934;52.690;6.184;2023-05-28T03:39:06;10.60;99.90
53053;DHT22;38934;52.690;6.184;2023-05-28T03:41:32;10.50;99.90
53053;DHT22;38934;52.690;6.184;2023-05-28T03:43:58;10.60;99.90
53053;DHT22;38934;52.690;6.184;2023-05-28T03:46:24;10.50;99.90
53053;DHT22;38934;52.690;6.184;2023-05-28T03:48:49;10.50;99.90
53053;DHT22;38934;52.690;6.184;2023-05-28T03:51:17;10.50;99.90
53053;DHT22;38934;52.690;6.184;2023-05-28T03:53:43;10.50;99.90
53053;DHT22;38934;52.690;6.184;2023-05-28T03:56:09;10.50;99.90
53053;DHT22;38934;52.690;6.184;2023-05-28T03:58:34;10.50;99.90
53053;DHT22;38934;52.690;6.184;2023-05-28T04:01:00;10.50;99.90
53053;DHT22;38934;52.690;6.184;2023-05-28T04:03:26;10.40;99.90
53053;DHT22;38934;52.690;6.184;2023-05-28T04:05:52;10.50;99.90
53053;DHT22;38934;52.690;6.184;2023-05-28T04:08:19;10.50;99.90
53053;DHT22;38934;52.690;6.184;2023-05-28T04:10:45;10.50;99.90
53053;DHT22;38934;52.690;6.184;2023-05-28T04:13:10;10.50;99.90
53053;DHT22;38934;52.690;6.184;2023-05-28T04:15:36;10.50;99.90
53053;DHT22;38934;52.690;6.184;2023-05-28T04:18:02;10.50;99.90
53053;DHT22;38934;52.690;6.184;2023-05-28T04:20:30;10.50;99.90
53053;DHT22;38934;52.690;6.184;2023-05-28T04:22:56;10.50;99.90
53053;DHT22;38934;52.690;6.184;2023-05-28T04:25:22;10.60;99.90
53053;DHT22;38934;52.690;6.184;2023-05-28T04:27:47;10.60;99.90
53053;DHT22;38934;52.690;6.184;2023-05-28T04:30:13;10.60;99.90
53053;DHT22;38934;52.690;6.184;2023-05-28T04:32:39;10.60;99.90
53053;DHT22;38934;52.690;6.184;2023-05-28T04:35:08;10.60;99.90
53053;DHT22;38934;52.690;6.184;2023-05-28T04:37:34;10.70;99.90
53053;DHT22;38934;52.690;6.184;2023-05-28T04:40:03;10.70;99.90
53053;DHT22;38934;52.690;6.184;2023-05-28T04:42:31;10.80;99.90
53053;DHT22;38934;52.690;6.184;2023-05-28T04:44:57;10.80;99.90
53053;DHT22;38934;52.690;6.184;2023-05-28T04:47:24;10.90;99.90
53053;DHT22;38934;52.690;6.184;2023-05-28T04:49:50;10.90;99.90
53053;DHT22;38934;52.690;6.184;2023-05-28T04:52:16;11.10;99.90
53053;DHT22;38934;52.690;6.184;2023-05-28T04:54:44;11.40;99.90
53053;DHT22;38934;52.690;6.184;2023-05-28T04:57:12;11.90;99.90
53053;DHT22;38934;52.690;6.184;2023-05-28T04:59:38;12.70;99.90
53053;DHT22;38934;52.690;6.184;2023-05-28T05:02:03;13.20;99.90
53053;DHT22;38934;52.690;6.184;2023-05-28T05:04:29;13.30;99.90
53053;DHT22;38934;52.690;6.184;2023-05-28T05:06:55;13.60;99.90
53053;DHT22;38934;52.690;6.184;2023-05-28T05:09:21;13.70;99.90
53053;DHT22;38934;52.690;6.184;2023-05-28T05:11:48;14.10;99.90
53053;DHT22;38934;52.690;6.184;2023-05-28T05:14:14;14.10;99.90
53053;DHT22;38934;52.690;6.184;2023-05-28T05:16:40;13.90;99.90
53053;DHT22;38934;52.690;6.184;2023-05-28T05:19:06;13.70;99.90
53053;DHT22;38934;52.690;6.184;2023-05-28T05:21:32;13.60;99.90
53053;DHT22;38934;52.690;6.184;2023-05-28T05:23:58;13.40;99.90
53053;DHT22;38934;52.690;6.184;2023-05-28T05:26:24;13.40;99.90
53053;DHT22;38934;52.690;6.184;2023-05-28T05:28:51;13.20;99.90
53053;DHT22;38934;52.690;6.184;2023-05-28T05:31:16;13.10;99.90
53053;DHT22;38934;52.690;6.184;2023-05-28T05:33:42;13.00;99.90
53053;DHT22;38934;52.690;6.184;2023-05-28T05:36:09;12.90;99.90
53053;DHT22;38934;52.690;6.184;2023-05-28T05:38:35;12.80;99.90
53053;DHT22;38934;52.690;6.184;2023-05-28T05:41:02;12.80;99.90
53053;DHT22;38934;52.690;6.184;2023-05-28T05:43:28;12.80;99.90
53053;DHT22;38934;52.690;6.184;2023-05-28T05:45:55;12.70;99.90
53053;DHT22;38934;52.690;6.184;2023-05-28T05:48:20;13.10;99.90
53053;DHT22;38934;52.690;6.184;2023-05-28T05:50:54;12.70;99.90
53053;DHT22;38934;52.690;6.184;2023-05-28T05:53:21;12.70;99.90
53053;DHT22;38934;52.690;6.184;2023-05-28T05:55:47;12.70;99.90
53053;DHT22;38934;52.690;6.184;2023-05-28T05:58:13;13.00;99.90
53053;DHT22;38934;52.690;6.184;2023-05-28T06:00:40;13.10;99.90
53053;DHT22;38934;52.690;6.184;2023-05-28T06:03:06;13.40;99.90
53053;DHT22;38934;52.690;6.184;2023-05-28T06:05:33;13.50;99.90
53053;DHT22;38934;52.690;6.184;2023-05-28T06:07:59;13.70;99.90
53053;DHT22;38934;52.690;6.184;2023-05-28T06:10:25;13.90;99.90
53053;DHT22;38934;52.690;6.184;2023-05-28T06:12:50;14.10;99.90
53053;DHT22;38934;52.690;6.184;2023-05-28T06:15:18;14.10;99.90
53053;DHT22;38934;52.690;6.184;2023-05-28T06:17:44;14.20;99.90
53053;DHT22;38934;52.690;6.184;2023-05-28T06:20:10;14.10;99.90
53053;DHT22;38934;52.690;6.184;2023-05-28T06:22:36;14.00;99.90
53053;DHT22;38934;52.690;6.184;2023-05-28T06:25:02;13.90;99.90
53053;DHT22;38934;52.690;6.184;2023-05-28T06:27:29;13.90;99.90
53053;DHT22;38934;52.690;6.184;2023-05-28T06:29:54;13.90;99.90
53053;DHT22;38934;52.690;6.184;2023-05-28T06:32:20;13.90;99.90
53053;DHT22;38934;52.690;6.184;2023-05-28T06:34:46;14.00;99.90
53053;DHT22;38934;52.690;6.184;2023-05-28T06:37:12;14.10;99.90
53053;DHT22;38934;52.690;6.184;2023-05-28T06:39:39;14.40;99.90
53053;DHT22;38934;52.690;6.184;2023-05-28T06:42:05;15.00;99.90
53053;DHT22;38934;52.690;6.184;2023-05-28T06:44:33;15.70;99.90
53053;DHT22;38934;52.690;6.184;2023-05-28T06:46:59;16.30;99.90
53053;DHT22;38934;52.690;6.184;2023-05-28T06:49:24;17.10;99.90
53053;DHT22;38934;52.690;6.184;2023-05-28T06:51:51;17.90;99.90
53053;DHT22;38934;52.690;6.184;2023-05-28T06:54:16;18.70;99.90
53053;DHT22;38934;52.690;6.184;2023-05-28T06:56:42;19.30;99.90
53053;DHT22;38934;52.690;6.184;2023-05-28T06:59:08;19.80;99.90
53053;DHT22;38934;52.690;6.184;2023-05-28T07:01:33;19.90;99.90
53053;DHT22;38934;52.690;6.184;2023-05-28T07:03:59;20.20;99.90
53053;DHT22;38934;52.690;6.184;2023-05-28T07:06:25;20.30;99.90
53053;DHT22;38934;52.690;6.184;2023-05-28T07:08:51;20.40;99.90
53053;DHT22;38934;52.690;6.184;2023-05-28T07:11:18;20.60;99.90
53053;DHT22;38934;52.690;6.184;2023-05-28T07:13:44;20.90;99.90
53053;DHT22;38934;52.690;6.184;2023-05-28T07:16:12;21.10;99.90
53053;DHT22;38934;52.690;6.184;2023-05-28T07:18:40;21.10;99.90
53053;DHT22;38934;52.690;6.184;2023-05-28T07:21:05;21.20;99.90
53053;DHT22;38934;52.690;6.184;2023-05-28T07:23:31;21.40;99.90
53053;DHT22;38934;52.690;6.184;2023-05-28T07:25:57;21.20;99.90
53053;DHT22;38934;52.690;6.184;2023-05-28T07:28:23;21.00;99.90
53053;DHT22;38934;52.690;6.184;2023-05-28T07:30:48;21.20;99.90
53053;DHT22;38934;52.690;6.184;2023-05-28T07:33:14;21.40;99.90
53053;DHT22;38934;52.690;6.184;2023-05-28T07:35:41;21.50;99.90
53053;DHT22;38934;52.690;6.184;2023-05-28T07:38:07;21.40;99.90
53053;DHT22;38934;52.690;6.184;2023-05-28T07:40:36;21.60;99.90
53053;DHT22;38934;52.690;6.184;2023-05-28T07:43:01;21.90;99.90
53053;DHT22;38934;52.690;6.184;2023-05-28T07:45:27;22.10;99.90
53053;DHT22;38934;52.690;6.184;2023-05-28T07:47:53;22.00;99.80
53053;DHT22;38934;52.690;6.184;2023-05-28T07:50:18;21.50;98.80
53053;DHT22;38934;52.690;6.184;2023-05-28T07:52:44;21.20;99.20
53053;DHT22;38934;52.690;6.184;2023-05-28T07:55:11;21.30;99.90
53053;DHT22;38934;52.690;6.184;2023-05-28T07:57:37;21.90;99.70
53053;DHT22;38934;52.690;6.184;2023-05-28T08:00:03;21.90;99.90
53053;DHT22;38934;52.690;6.184;2023-05-28T08:02:35;22.30;99.90
53053;DHT22;38934;52.690;6.184;2023-05-28T08:05:02;22.30;96.90
53053;DHT22;38934;52.690;6.184;2023-05-28T08:07:28;22.50;98.80
53053;DHT22;38934;52.690;6.184;2023-05-28T08:09:54;22.50;98.00
53053;DHT22;38934;52.690;6.184;2023-05-28T08:12:20;22.60;96.60
53053;DHT22;38934;52.690;6.184;2023-05-28T08:14:46;22.90;96.50
53053;DHT22;38934;52.690;6.184;2023-05-28T08:17:13;22.60;93.00
53053;DHT22;38934;52.690;6.184;2023-05-28T08:19:39;22.40;93.90
53053;DHT22;38934;52.690;6.184;2023-05-28T08:22:05;22.40;92.70
53053;DHT22;38934;52.690;6.184;2023-05-28T08:24:31;22.30;92.40
53053;DHT22;38934;52.690;6.184;2023-05-28T08:26:57;22.30;92.80
53053;DHT22;38934;52.690;6.184;2023-05-28T08:29:23;22.80;93.00
53053;DHT22;38934;52.690;6.184;2023-05-28T08:31:48;23.50;93.40
53053;DHT22;38934;52.690;6.184;2023-05-28T08:34:14;24.10;92.30
53053;DHT22;38934;52.690;6.184;2023-05-28T08:36:40;24.40;90.50
53053;DHT22;38934;52.690;6.184;2023-05-28T08:39:06;24.20;83.00
53053;DHT22;38934;52.690;6.184;2023-05-28T08:41:34;24.00;82.40
53053;DHT22;38934;52.690;6.184;2023-05-28T08:43:59;23.80;82.90
53053;DHT22;38934;52.690;6.184;2023-05-28T08:46:27;23.90;81.20
53053;DHT22;38934;52.690;6.184;2023-05-28T08:48:56;24.00;81.10
53053;DHT22;38934;52.690;6.184;2023-05-28T08:51:23;23.90;80.30
53053;DHT22;38934;52.690;6.184;2023-05-28T08:53:50;23.80;78.00
53053;DHT22;38934;52.690;6.184;2023-05-28T08:56:17;23.60;79.60
53053;DHT22;38934;52.690;6.184;2023-05-28T08:58:44;23.90;82.20
53053;DHT22;38934;52.690;6.184;2023-05-28T09:01:10;24.50;79.40
53053;DHT22;38934;52.690;6.184;2023-05-28T09:03:38;24.50;78.70
53053;DHT22;38934;52.690;6.184;2023-05-28T09:06:05;24.60;77.20
53053;DHT22;38934;52.690;6.184;2023-05-28T09:08:32;24.50;75.90
53053;DHT22;38934;52.690;6.184;2023-05-28T09:11:09;24.50;75.50
53053;DHT22;38934;52.690;6.184;2023-05-28T09:13:44;24.40;76.20
53053;DHT22;38934;52.690;6.184;2023-05-28T09:16:12;24.50;74.40
53053;DHT22;38934;52.690;6.184;2023-05-28T09:18:48;24.50;75.30
53053;DHT22;38934;52.690;6.184;2023-05-28T09:21:13;24.90;76.10
53053;DHT22;38934;52.690;6.184;2023-05-28T09:23:40;24.80;72.70
53053;DHT22;38934;52.690;6.184;2023-05-28T09:26:09;24.70;72.70
53053;DHT22;38934;52.690;6.184;2023-05-28T09:28:35;24.80;72.90
53053;DHT22;38934;52.690;6.184;2023-05-28T09:31:05;24.80;72.80
53053;DHT22;38934;52.690;6.184;2023-05-28T09:33:32;25.00;73.90
53053;DHT22;38934;52.690;6.184;2023-05-28T09:36:02;25.50;71.50
53053;DHT22;38934;52.690;6.184;2023-05-28T09:38:41;25.40;70.60
53053;DHT22;38934;52.690;6.184;2023-05-28T09:41:26;25.30;69.80
53053;DHT22;38934;52.690;6.184;2023-05-28T09:44:01;25.40;69.20
53053;DHT22;38934;52.690;6.184;2023-05-28T09:46:31;25.40;69.80
53053;DHT22;38934;52.690;6.184;2023-05-28T09:49:00;25.40;68.60
53053;DHT22;38934;52.690;6.184;2023-05-28T09:51:31;25.50;69.30
53053;DHT22;38934;52.690;6.184;2023-05-28T09:53:59;25.40;68.60
53053;DHT22;38934;52.690;6.184;2023-05-28T09:56:33;25.10;66.60
53053;DHT22;38934;52.690;6.184;2023-05-28T09:59:00;24.60;67.90
53053;DHT22;38934;52.690;6.184;2023-05-28T10:02:24;24.60;69.60
53053;DHT22;38934;52.690;6.184;2023-05-28T10:04:53;24.90;67.90
53053;DHT22;38934;52.690;6.184;2023-05-28T10:07:25;24.90;68.00
53053;DHT22;38934;52.690;6.184;2023-05-28T10:09:54;24.80;68.40
53053;DHT22;38934;52.690;6.184;2023-05-28T10:12:28;25.10;70.60
53053;DHT22;38934;52.690;6.184;2023-05-28T10:14:55;25.30;69.80
53053;DHT22;38934;52.690;6.184;2023-05-28T10:17:21;25.10;68.40
53053;DHT22;38934;52.690;6.184;2023-05-28T10:19:47;25.00;67.80
53053;DHT22;38934;52.690;6.184;2023-05-28T10:22:14;24.70;67.50
53053;DHT22;38934;52.690;6.184;2023-05-28T10:24:41;24.40;67.20
53053;DHT22;38934;52.690;6.184;2023-05-28T10:27:12;24.20;69.00
53053;DHT22;38934;52.690;6.184;2023-05-28T10:29:42;24.20;68.30
53053;DHT22;38934;52.690;6.184;2023-05-28T10:32:09;24.10;68.70
53053;DHT22;38934;52.690;6.184;2023-05-28T10:34:38;24.00;68.50
53053;DHT22;38934;52.690;6.184;2023-05-28T10:37:06;23.70;67.70
53053;DHT22;38934;52.690;6.184;2023-05-28T10:39:45;23.50;68.60
53053;DHT22;38934;52.690;6.184;2023-05-28T10:42:18;23.40;69.30
53053;DHT22;38934;52.690;6.184;2023-05-28T10:45:04;23.40;69.40
53053;DHT22;38934;52.690;6.184;2023-05-28T10:47:50;23.40;67.70
53053;DHT22;38934;52.690;6.184;2023-05-28T10:50:18;23.30;67.50
53053;DHT22;38934;52.690;6.184;2023-05-28T10:55:52;23.20;67.50
53053;DHT22;38934;52.690;6.184;2023-05-28T10:58:35;23.30;65.00
53053;DHT22;38934;52.690;6.184;2023-05-28T11:01:18;23.30;65.50
53053;DHT22;38934;52.690;6.184;2023-05-28T11:03:55;23.20;63.80
53053;DHT22;38934;52.690;6.184;2023-05-28T11:06:25;23.10;63.10
53053;DHT22;38934;52.690;6.184;2023-05-28T11:08:51;23.00;62.60
53053;DHT22;38934;52.690;6.184;2023-05-28T11:11:18;22.90;60.70
53053;DHT22;38934;52.690;6.184;2023-05-28T11:13:48;22.90;61.40
53053;DHT22;38934;52.690;6.184;2023-05-28T11:16:16;23.00;61.70
53053;DHT22;38934;52.690;6.184;2023-05-28T11:19:01;23.00;60.10
53053;DHT22;38934;52.690;6.184;2023-05-28T11:21:29;23.00;62.80
53053;DHT22;38934;52.690;6.184;2023-05-28T11:24:03;23.10;60.20
53053;DHT22;38934;52.690;6.184;2023-05-28T11:26:33;23.00;59.70
53053;DHT22;38934;52.690;6.184;2023-05-28T11:29:00;23.00;60.00
53053;DHT22;38934;52.690;6.184;2023-05-28T11:31:26;22.90;58.80
53053;DHT22;38934;52.690;6.184;2023-05-28T11:33:54;22.80;59.90
53053;DHT22;38934;52.690;6.184;2023-05-28T11:36:20;22.70;60.50
53053;DHT22;38934;52.690;6.184;2023-05-28T11:38:47;22.80;60.20
53053;DHT22;38934;52.690;6.184;2023-05-28T11:41:14;22.90;60.00
53053;DHT22;38934;52.690;6.184;2023-05-28T11:43:40;23.10;61.40
53053;DHT22;38934;52.690;6.184;2023-05-28T11:46:05;23.10;60.20
53053;DHT22;38934;52.690;6.184;2023-05-28T11:48:36;23.30;60.00
53053;DHT22;38934;52.690;6.184;2023-05-28T11:51:03;23.20;56.30
53053;DHT22;38934;52.690;6.184;2023-05-28T11:53:42;23.20;56.30
53053;DHT22;38934;52.690;6.184;2023-05-28T11:56:10;23.20;56.30
53053;DHT22;38934;52.690;6.184;2023-05-28T11:58:37;23.10;56.00
53053;DHT22;38934;52.690;6.184;2023-05-28T12:01:08;22.90;54.40
53053;DHT22;38934;52.690;6.184;2023-05-28T12:03:36;22.90;55.60
53053;DHT22;38934;52.690;6.184;2023-05-28T12:06:02;22.90;54.90
53053;DHT22;38934;52.690;6.184;2023-05-28T12:08:28;22.90;54.60
53053;DHT22;38934;52.690;6.184;2023-05-28T12:11:00;23.00;54.70
53053;DHT22;38934;52.690;6.184;2023-05-28T12:13:33;23.10;54.70
53053;DHT22;38934;52.690;6.184;2023-05-28T12:16:08;23.10;53.80
53053;DHT22;38934;52.690;6.184;2023-05-28T12:18:39;23.00;49.90
53053;DHT22;38934;52.690;6.184;2023-05-28T12:21:10;22.70;49.60
53053;DHT22;38934;52.690;6.184;2023-05-28T12:23:36;22.50;49.30
53053;DHT22;38934;52.690;6.184;2023-05-28T12:26:01;22.40;49.90
53053;DHT22;38934;52.690;6.184;2023-05-28T12:28:30;22.40;50.40
53053;DHT22;38934;52.690;6.184;2023-05-28T12:31:01;22.40;49.30
53053;DHT22;38934;52.690;6.184;2023-05-28T12:33:27;22.40;49.10
53053;DHT22;38934;52.690;6.184;2023-05-28T12:35:52;22.50;49.60
53053;DHT22;38934;52.690;6.184;2023-05-28T12:38:18;22.50;48.10
53053;DHT22;38934;52.690;6.184;2023-05-28T12:40:45;22.60;47.40
53053;DHT22;38934;52.690;6.184;2023-05-28T12:43:10;22.60;46.80
53053;DHT22;38934;52.690;6.184;2023-05-28T12:45:36;22.70;46.90
53053;DHT22;38934;52.690;6.184;2023-05-28T12:48:02;22.60;46.50
53053;DHT22;38934;52.690;6.184;2023-05-28T12:50:29;22.50;44.90
53053;DHT22;38934;52.690;6.184;2023-05-28T12:52:55;22.40;45.20
53053;DHT22;38934;52.690;6.184;2023-05-28T12:55:22;22.30;44.70
53053;DHT22;38934;52.690;6.184;2023-05-28T12:57:48;22.40;47.00
53053;DHT22;38934;52.690;6.184;2023-05-28T13:00:14;22.60;46.20
53053;DHT22;38934;52.690;6.184;2023-05-28T13:02:41;22.60;44.90
53053;DHT22;38934;52.690;6.184;2023-05-28T13:05:07;22.70;45.40
53053;DHT22;38934;52.690;6.184;2023-05-28T13:07:36;22.70;44.50
53053;DHT22;38934;52.690;6.184;2023-05-28T13:10:02;22.60;44.00
53053;DHT22;38934;52.690;6.184;2023-05-28T13:12:30;22.70;43.30
53053;DHT22;38934;52.690;6.184;2023-05-28T13:14:56;22.50;41.20
53053;DHT22;38934;52.690;6.184;2023-05-28T13:17:22;22.40;41.50
53053;DHT22;38934;52.690;6.184;2023-05-28T13:19:48;22.40;42.30
53053;DHT22;38934;52.690;6.184;2023-05-28T13:22:15;22.50;43.30
53053;DHT22;38934;52.690;6.184;2023-05-28T13:24:41;22.50;43.10
53053;DHT22;38934;52.690;6.184;2023-05-28T13:27:07;22.60;41.60
53053;DHT22;38934;52.690;6.184;2023-05-28T13:29:33;22.50;41.00
53053;DHT22;38934;52.690;6.184;2023-05-28T13:31:58;22.40;41.90
53053;DHT22;38934;52.690;6.184;2023-05-28T13:34:24;22.50;42.30
53053;DHT22;38934;52.690;6.184;2023-05-28T13:36:56;22.50;42.10
53053;DHT22;38934;52.690;6.184;2023-05-28T13:39:24;22.50;42.70
53053;DHT22;38934;52.690;6.184;2023-05-28T13:41:50;22.40;43.10
53053;DHT22;38934;52.690;6.184;2023-05-28T13:44:24;22.40;44.30
53053;DHT22;38934;52.690;6.184;2023-05-28T13:46:50;22.50;45.60
53053;DHT22;38934;52.690;6.184;2023-05-28T13:49:16;22.50;46.60
53053;DHT22;38934;52.690;6.184;2023-05-28T13:51:41;22.40;47.40
53053;DHT22;38934;52.690;6.184;2023-05-28T13:54:11;22.30;46.90
53053;DHT22;38934;52.690;6.184;2023-05-28T13:56:37;22.30;46.80
53053;DHT22;38934;52.690;6.184;2023-05-28T13:59:04;22.30;47.00
53053;DHT22;38934;52.690;6.184;2023-05-28T14:01:32;22.30;48.30
53053;DHT22;38934;52.690;6.184;2023-05-28T14:03:58;22.40;49.60
53053;DHT22;38934;52.690;6.184;2023-05-28T14:06:26;22.40;49.80
53053;DHT22;38934;52.690;6.184;2023-05-28T14:08:51;22.50;50.50
53053;DHT22;38934;52.690;6.184;2023-05-28T14:11:17;22.60;51.10
53053;DHT22;38934;52.690;6.184;2023-05-28T14:13:44;22.60;50.60
53053;DHT22;38934;52.690;6.184;2023-05-28T14:16:10;22.60;50.80
53053;DHT22;38934;52.690;6.184;2023-05-28T14:18:36;22.60;50.80
53053;DHT22;38934;52.690;6.184;2023-05-28T14:21:04;22.50;51.10
53053;DHT22;38934;52.690;6.184;2023-05-28T14:23:32;22.50;53.00
53053;DHT22;38934;52.690;6.184;2023-05-28T14:25:57;22.40;54.00
53053;DHT22;38934;52.690;6.184;2023-05-28T14:28:23;22.50;54.90
53053;DHT22;38934;52.690;6.184;2023-05-28T14:30:52;22.50;57.20
53053;DHT22;38934;52.690;6.184;2023-05-28T14:33:18;22.60;58.80
53053;DHT22;38934;52.690;6.184;2023-05-28T14:35:45;22.40;60.70
53053;DHT22;38934;52.690;6.184;2023-05-28T14:38:11;22.50;62.10
53053;DHT22;38934;52.690;6.184;2023-05-28T14:40:36;22.50;64.30
53053;DHT22;38934;52.690;6.184;2023-05-28T14:43:02;22.20;64.60
53053;DHT22;38934;52.690;6.184;2023-05-28T14:45:28;22.30;65.70
53053;DHT22;38934;52.690;6.184;2023-05-28T14:47:53;22.10;65.70
53053;DHT22;38934;52.690;6.184;2023-05-28T14:50:19;22.00;66.90
53053;DHT22;38934;52.690;6.184;2023-05-28T14:52:46;21.90;66.80
53053;DHT22;38934;52.690;6.184;2023-05-28T14:55:14;21.80;65.60
53053;DHT22;38934;52.690;6.184;2023-05-28T14:57:40;22.20;66.70
53053;DHT22;38934;52.690;6.184;2023-05-28T15:00:07;21.90;66.80
53053;DHT22;38934;52.690;6.184;2023-05-28T15:02:34;21.80;66.20
53053;DHT22;38934;52.690;6.184;2023-05-28T15:05:00;21.80;66.70
53053;DHT22;38934;52.690;6.184;2023-05-28T15:07:36;21.80;66.60
53053;DHT22;38934;52.690;6.184;2023-05-28T15:10:02;21.80;66.50
53053;DHT22;38934;52.690;6.184;2023-05-28T15:12:30;21.80;66.40
53053;DHT22;38934;52.690;6.184;2023-05-28T15:14:59;21.70;66.80
53053;DHT22;38934;52.690;6.184;2023-05-28T15:17:25;21.70;67.70
53053;DHT22;38934;52.690;6.184;2023-05-28T15:19:50;21.80;67.10
53053;DHT22;38934;52.690;6.184;2023-05-28T15:22:18;21.70;66.60
53053;DHT22;38934;52.690;6.184;2023-05-28T15:24:46;21.70;67.10
53053;DHT22;38934;52.690;6.184;2023-05-28T15:27:13;21.60;66.30
53053;DHT22;38934;52.690;6.184;2023-05-28T15:29:39;21.60;65.60
53053;DHT22;38934;52.690;6.184;2023-05-28T15:32:17;21.50;65.50
53053;DHT22;38934;52.690;6.184;2023-05-28T15:34:42;21.50;66.00